Raugust, Washington
Current Conditions -  °F | °C
As of 4:20 AM on Thursday 18 Dec 2014 (Local Time) from KMWH Reporting Station
Haze Haze  
Wind Chill:   Ceiling: 200
Heat Index:   Visibility: 2mi
Dew Point:   Wind: 3mph
Humidity: 100%   Direction: 160°SSE
Pressure: 30.01"   Gusts: NA
Location:  47.1758°N, 119.289°W
Report Text: KMWH 181220Z AUTO 16003KT 2SM BR OVC002 02/02 A3001 RMK AO2 T00220022
Loading
Personal Weather Stations






























Interactive Weather Map New forecast layout! Learn more

10-Day Weather Forecast

Advertisements
Track Severe Weather on mobile